PHNG

Details ICAO PHNG (NGF)
Name KANEOHE BAY MCAF
Region USA (Hawaii)
Timezone Pacific/Honolulu (UTC-10.0)
Plans Departing 6
Arriving 18
Stats Elevation 22 ft / 7 m (AMSL)
Location 21.450444° -157.767919°
Runways 1
Magnetic Variation 9.504° E
Sunrise 2017-12-11 17:00:32 UTC / 2017-12-11 07:00:32 Local
Sunset 2017-12-12 03:51:26 UTC / 2017-12-11 17:51:26 Local
Advertisement - Login to hide

Runways

ID Width Length Bearing (true) Bearing (mag) Surface Threshold Offset Overrun Length
04 200 ft / 61 m 7,784 ft / 2,373 m 51.51° 42.01° Asphalt 0 ft / 0 m 0 ft / 0 m
22 200 ft / 61 m 7,784 ft / 2,373 m 231.51° 222.01° Asphalt 0 ft / 0 m 0 ft / 0 m

Map

Weather


0- 5 10 15 20 25 30 35+ Temperature / ° C

Clouds and Precipitation
Forecast for 2017-12-12 00:00 UTC. Updated 2 hours ago

Ground ~20,000 ft ~40,000 ft Winds

METAR

PHNG 120057Z 00000KT 10SM BKN065 27/20 A2987 RMK AO2 SLP109 T02670200 $

TAF

TAF AMD PHNG 1201/1221 05008KT 9999 SCT020 BKN050 QNH2984INS TEMPO 1201/1205 23010KT BKN025 BKN035 FM120900 VRB05KT 9999 BKN020 OVC045 QNH2987INS TEMPO 1209/1213 8000 -SHRA SCT025 BKN055 T22/1213Z T26/1220Z AMD 0040Z

Frequencies

Unicom 120.70 MHz CTAF
Approach 125.00 MHz APP/DEP
Tower 120.70 MHz TWR
Warning: Do not use this data for real-world aviation or navigation. No guarantee of current accuracy is given.